createdAt,value
2018-04-12T00:00:55.931Z,10.20
2018-04-12T00:02:59.282Z,10.20
2018-04-12T00:05:02.598Z,10.20
2018-04-12T00:07:05.943Z,10.10
2018-04-12T00:09:09.299Z,10.20
2018-04-12T00:11:14.651Z,10.20
2018-04-12T00:13:18.249Z,10.20
2018-04-12T00:15:21.563Z,10.20
2018-04-12T00:17:24.922Z,10.20
2018-04-12T00:19:28.461Z,10.20
2018-04-12T00:21:31.818Z,10.20
2018-04-12T00:23:35.185Z,10.20
2018-04-12T00:25:38.759Z,10.20
2018-04-12T00:27:42.135Z,10.10
2018-04-12T00:29:45.498Z,10.10
2018-04-12T00:31:49.546Z,10.10
2018-04-12T00:33:54.608Z,10.10
2018-04-12T00:35:58.215Z,10.10
2018-04-12T00:38:02.420Z,10.10
2018-04-12T00:40:05.782Z,10.10
2018-04-12T00:42:09.099Z,10.10
2018-04-12T00:44:12.567Z,10.00
2018-04-12T00:46:15.884Z,10.00
2018-04-12T00:48:19.216Z,10.00
2018-04-12T00:50:22.570Z,10.00
2018-04-12T00:52:25.904Z,10.00
2018-04-12T00:54:29.298Z,10.00
2018-04-12T00:56:32.633Z,9.90
2018-04-12T00:58:35.950Z,9.90
2018-04-12T01:00:39.248Z,9.90
2018-04-12T01:02:43.348Z,9.90
2018-04-12T01:04:46.691Z,9.90
2018-04-12T01:06:50.030Z,9.90
2018-04-12T01:08:53.370Z,9.90
2018-04-12T01:10:56.688Z,9.90
2018-04-12T01:13:00.034Z,9.80
2018-04-12T01:15:03.367Z,9.80
2018-04-12T01:17:06.689Z,9.80
2018-04-12T01:19:10.802Z,9.80
2018-04-12T01:21:14.908Z,9.80
2018-04-12T01:23:18.220Z,9.70
2018-04-12T01:25:21.540Z,9.70
2018-04-12T01:27:24.886Z,9.70
2018-04-12T01:29:28.993Z,9.70
2018-04-12T01:31:32.315Z,9.70
2018-04-12T01:33:35.659Z,9.70
2018-04-12T01:35:38.995Z,9.70
2018-04-12T01:37:42.311Z,9.70
2018-04-12T01:39:45.626Z,9.70
2018-04-12T01:41:48.962Z,9.70
2018-04-12T01:43:52.302Z,9.80
2018-04-12T01:45:55.633Z,9.80
2018-04-12T01:47:59.906Z,9.70
2018-04-12T01:50:03.258Z,9.70
2018-04-12T01:52:06.596Z,9.70
2018-04-12T01:54:10.019Z,9.70
2018-04-12T01:56:13.381Z,9.70
2018-04-12T01:58:16.727Z,9.70
2018-04-12T02:00:20.082Z,9.70
2018-04-12T02:02:23.409Z,9.70
2018-04-12T02:06:37.160Z,9.70
2018-04-12T02:08:40.505Z,9.70
2018-04-12T02:10:43.824Z,9.70
2018-04-12T02:12:47.168Z,9.70
2018-04-12T02:14:50.476Z,9.70
2018-04-12T02:16:53.846Z,9.70
2018-04-12T02:18:57.164Z,9.70
2018-04-12T02:21:00.482Z,9.70
2018-04-12T02:23:03.827Z,9.70
2018-04-12T02:25:07.139Z,9.70
2018-04-12T02:27:10.498Z,9.70
2018-04-12T02:29:13.853Z,9.70
2018-04-12T02:31:17.171Z,9.70
2018-04-12T02:33:20.571Z,9.70
2018-04-12T02:35:23.950Z,9.70
2018-04-12T02:37:27.328Z,9.70
2018-04-12T02:39:31.417Z,9.70
2018-04-12T02:41:35.411Z,9.70
2018-04-12T02:43:39.493Z,9.70
2018-04-12T02:45:42.817Z,9.60
2018-04-12T02:47:47.193Z,9.70
2018-04-12T02:49:50.832Z,9.60
2018-04-12T02:51:54.189Z,9.70
2018-04-12T02:53:57.518Z,9.70
2018-04-12T02:56:01.630Z,9.60
2018-04-12T02:58:05.732Z,9.70
2018-04-12T03:00:09.847Z,9.60
2018-04-12T03:02:13.195Z,9.60
2018-04-12T03:04:16.509Z,9.60
2018-04-12T03:06:19.817Z,9.60
2018-04-12T03:08:23.940Z,9.60
2018-04-12T03:10:27.257Z,9.60
2018-04-12T03:12:31.354Z,9.60
2018-04-12T03:14:34.674Z,9.60
2018-04-12T03:16:38.017Z,9.60
2018-04-12T03:18:41.375Z,9.60
2018-04-12T03:20:44.728Z,9.60
2018-04-12T03:22:48.040Z,9.50
2018-04-12T03:24:51.360Z,9.50
2018-04-12T03:26:54.680Z,9.50
2018-04-12T03:28:58.034Z,9.50
2018-04-12T03:31:01.385Z,9.50
2018-04-12T03:33:04.709Z,9.50
2018-04-12T03:35:08.083Z,9.40
2018-04-12T03:37:11.437Z,9.40
2018-04-12T03:39:14.817Z,9.40
2018-04-12T03:41:18.915Z,9.40
2018-04-12T03:43:22.279Z,9.40
2018-04-12T03:45:25.590Z,9.40
2018-04-12T03:47:29.679Z,9.30
2018-04-12T03:49:33.258Z,9.30
2018-04-12T03:51:36.666Z,9.30
2018-04-12T03:53:40.001Z,9.30
2018-04-12T03:55:43.343Z,9.30
2018-04-12T03:57:46.708Z,9.20
2018-04-12T03:59:50.161Z,9.20
2018-04-12T04:01:54.259Z,9.20
2018-04-12T04:03:57.575Z,9.20
2018-04-12T04:06:01.659Z,9.20
2018-04-12T04:08:04.977Z,9.20
2018-04-12T04:10:08.342Z,9.20
2018-04-12T04:12:11.870Z,9.20
2018-04-12T04:14:27.113Z,9.20
2018-04-12T04:16:42.224Z,9.20
2018-04-12T04:18:57.346Z,9.20
2018-04-12T04:21:16.663Z,9.20
2018-04-12T04:23:20.056Z,9.20
2018-04-12T04:25:23.424Z,9.20
2018-04-12T04:27:27.478Z,9.30
2018-04-12T04:29:31.399Z,9.30
2018-04-12T04:31:35.527Z,9.40
2018-04-12T04:33:38.870Z,9.40
2018-04-12T04:35:43.005Z,9.40
2018-04-12T04:37:47.219Z,9.50
2018-04-12T04:39:50.807Z,9.40
2018-04-12T04:41:54.724Z,9.50
2018-04-12T04:43:58.855Z,9.50
2018-04-12T04:46:02.200Z,9.50
2018-04-12T04:48:05.531Z,9.50
2018-04-12T04:50:09.633Z,9.50
2018-04-12T04:52:14.013Z,9.50
2018-04-12T04:54:17.356Z,9.50
2018-04-12T04:56:21.499Z,9.50
2018-04-12T04:58:24.965Z,9.50
2018-04-12T05:00:28.301Z,9.50
2018-04-12T05:02:31.703Z,9.50
2018-04-12T05:04:35.031Z,9.50
2018-04-12T05:06:38.478Z,9.50
2018-04-12T05:08:41.830Z,9.50
2018-04-12T05:10:45.148Z,9.50
2018-04-12T05:12:48.513Z,9.60
2018-04-12T05:14:51.857Z,9.60
2018-04-12T05:16:55.184Z,9.60
2018-04-12T05:18:58.542Z,9.70
2018-04-12T05:21:01.901Z,9.70
2018-04-12T05:23:05.224Z,9.80
2018-04-12T05:25:08.559Z,9.80
2018-04-12T05:27:11.903Z,9.90
2018-04-12T05:29:15.272Z,10.00
2018-04-12T05:31:18.673Z,10.00
2018-04-12T05:33:21.993Z,10.10
2018-04-12T05:35:26.125Z,10.10
2018-04-12T05:37:29.470Z,10.10
2018-04-12T05:39:32.847Z,10.10
2018-04-12T05:41:36.177Z,10.10
2018-04-12T05:43:40.283Z,10.00
2018-04-12T05:45:43.637Z,10.00
2018-04-12T05:47:46.983Z,10.00
2018-04-12T05:49:50.356Z,10.00
2018-04-12T05:51:54.476Z,10.00
2018-04-12T05:53:58.577Z,10.00
2018-04-12T05:56:01.938Z,10.00
2018-04-12T05:58:05.262Z,10.00
2018-04-12T06:00:08.633Z,10.10
2018-04-12T06:02:12.745Z,10.10
2018-04-12T06:04:16.088Z,10.10
2018-04-12T06:06:19.486Z,10.10
2018-04-12T06:08:22.832Z,10.10
2018-04-12T06:10:26.938Z,10.10
2018-04-12T06:12:30.277Z,10.10
2018-04-12T06:14:33.624Z,10.20
2018-04-12T06:16:36.981Z,10.20
2018-04-12T06:18:40.315Z,10.30
2018-04-12T06:20:44.405Z,10.50
2018-04-12T06:22:48.530Z,10.50
2018-04-12T06:24:52.634Z,10.60
2018-04-12T06:26:56.770Z,10.70
2018-04-12T06:29:00.865Z,10.70
2018-04-12T06:31:04.222Z,10.70
2018-04-12T06:33:07.538Z,10.80
2018-04-12T06:35:12.070Z,10.80
2018-04-12T06:37:15.472Z,10.80
2018-04-12T06:39:18.831Z,10.90
2018-04-12T06:41:22.948Z,10.90
2018-04-12T06:43:26.320Z,10.90
2018-04-12T06:45:29.697Z,10.90
2018-04-12T06:47:33.089Z,10.90
2018-04-12T06:49:36.418Z,11.00
2018-04-12T06:51:40.518Z,11.10
2018-04-12T06:53:43.894Z,11.00
2018-04-12T06:55:47.233Z,11.10
2018-04-12T06:57:51.327Z,11.20
2018-04-12T06:59:55.466Z,11.30
2018-04-12T07:01:58.815Z,11.30
2018-04-12T07:04:02.176Z,11.40
2018-04-12T07:06:05.508Z,11.50
2018-04-12T07:08:09.621Z,11.80
2018-04-12T07:10:12.974Z,11.80
2018-04-12T07:12:16.329Z,12.00
2018-04-12T07:14:19.689Z,12.10
2018-04-12T07:16:23.043Z,12.30
2018-04-12T07:18:26.400Z,12.50
2018-04-12T07:20:29.762Z,12.60
2018-04-12T07:22:33.120Z,12.70
2018-04-12T07:24:36.518Z,12.90
2018-04-12T07:26:39.841Z,13.00
2018-04-12T07:28:44.621Z,13.10
2018-04-12T07:30:47.957Z,13.10
2018-04-12T07:32:52.066Z,13.10
2018-04-12T07:34:55.442Z,13.10
2018-04-12T07:36:59.056Z,13.10
2018-04-12T07:39:02.936Z,13.10
2018-04-12T07:41:08.184Z,13.10
2018-04-12T07:43:11.516Z,13.10
2018-04-12T07:45:15.674Z,13.30
2018-04-12T07:47:21.194Z,13.70
2018-04-12T07:49:24.893Z,13.60
2018-04-12T07:51:28.267Z,13.80
2018-04-12T07:53:31.629Z,14.00
2018-04-12T07:55:35.740Z,14.40
2018-04-12T07:57:39.414Z,14.30
2018-04-12T07:59:42.759Z,14.60
2018-04-12T08:01:46.136Z,14.60
2018-04-12T08:03:50.778Z,14.80
2018-04-12T08:05:54.147Z,14.80
2018-04-12T08:07:59.469Z,14.70
2018-04-12T08:10:02.775Z,14.60
2018-04-12T08:12:06.887Z,14.50
2018-04-12T08:14:10.218Z,14.60
2018-04-12T08:16:13.618Z,14.60
2018-04-12T08:18:18.700Z,14.70
2018-04-12T08:20:23.623Z,14.90
2018-04-12T08:22:27.123Z,14.90
2018-04-12T08:24:31.391Z,15.00
2018-04-12T08:26:35.651Z,15.30
2018-04-12T08:28:39.048Z,15.50
2018-04-12T08:30:43.926Z,16.00
2018-04-12T08:32:48.162Z,15.90
2018-04-12T08:34:51.555Z,16.00
2018-04-12T08:36:56.268Z,15.90
2018-04-12T08:39:01.122Z,16.00
2018-04-12T08:41:04.523Z,15.90
2018-04-12T08:43:07.892Z,16.10
2018-04-12T08:45:11.998Z,16.10
2018-04-12T08:47:15.473Z,16.10
2018-04-12T08:49:18.860Z,16.20
2018-04-12T08:51:22.983Z,16.40
2018-04-12T08:53:27.120Z,16.50
2018-04-12T08:55:30.469Z,16.50
2018-04-12T08:57:33.801Z,16.80
2018-04-12T08:59:38.011Z,17.20
2018-04-12T09:01:41.434Z,17.20
2018-04-12T09:03:44.807Z,17.40
2018-04-12T09:05:48.141Z,17.60
2018-04-12T09:07:51.497Z,17.80
2018-04-12T09:09:54.876Z,18.10
2018-04-12T09:11:58.221Z,18.50
2018-04-12T09:14:01.661Z,18.60
2018-04-12T09:16:05.025Z,18.80
2018-04-12T09:18:09.133Z,19.10
2018-04-12T09:20:12.589Z,19.10
2018-04-12T09:22:15.930Z,19.40
2018-04-12T09:24:20.402Z,18.80
2018-04-12T09:26:23.790Z,18.80
2018-04-12T09:28:28.064Z,18.60
2018-04-12T09:30:31.553Z,18.70
2018-04-12T09:32:35.758Z,18.70
2018-04-12T09:34:39.978Z,18.60
2018-04-12T09:36:44.058Z,18.60
2018-04-12T09:38:47.460Z,18.50
2018-04-12T09:40:50.824Z,18.20
2018-04-12T09:42:55.847Z,17.90
2018-04-12T09:44:59.193Z,17.90
2018-04-12T09:47:03.299Z,18.00
2018-04-12T09:49:07.430Z,18.00
2018-04-12T09:51:11.549Z,18.20
2018-04-12T09:53:15.453Z,18.20
2018-04-12T09:55:19.621Z,18.20
2018-04-12T09:57:24.059Z,18.20
2018-04-12T09:59:28.195Z,18.10
2018-04-12T10:01:31.542Z,18.10
2018-04-12T10:03:34.864Z,18.20
2018-04-12T10:05:38.197Z,18.10
2018-04-12T10:10:17.213Z,18.00
2018-04-12T10:12:21.529Z,18.00
2018-04-12T10:14:24.921Z,18.00
2018-04-12T10:16:28.270Z,18.00
2018-04-12T10:18:32.130Z,17.90
2018-04-12T10:20:36.314Z,17.90
2018-04-12T10:22:40.324Z,17.90
2018-04-12T10:24:43.887Z,18.00
2018-04-12T10:26:48.132Z,18.00
2018-04-12T10:28:51.525Z,17.90
2018-04-12T10:30:54.866Z,17.70
2018-04-12T10:32:58.203Z,17.60
2018-04-12T10:35:01.526Z,17.50
2018-04-12T10:37:04.957Z,17.50
2018-04-12T10:39:09.130Z,17.10
2018-04-12T10:41:12.489Z,17.10
2018-04-12T10:43:15.878Z,17.10
2018-04-12T10:45:19.206Z,17.00
2018-04-12T10:47:22.582Z,17.00
2018-04-12T10:49:25.960Z,17.00
2018-04-12T10:51:29.303Z,17.00
2018-04-12T10:53:32.634Z,16.90
2018-04-12T10:55:35.969Z,16.90
2018-04-12T10:57:39.292Z,16.90
2018-04-12T10:59:43.394Z,16.80
2018-04-12T11:01:47.502Z,16.50
2018-04-12T11:03:50.864Z,16.50
2018-04-12T11:05:54.235Z,16.40
2018-04-12T11:07:57.580Z,16.30
2018-04-12T11:10:01.775Z,16.10
2018-04-12T11:12:05.876Z,16.00
2018-04-12T11:14:09.269Z,15.90
2018-04-12T11:16:12.614Z,15.90
2018-04-12T11:18:16.033Z,15.80
2018-04-12T11:20:19.402Z,15.80
2018-04-12T11:22:22.782Z,15.70
2018-04-12T11:24:26.999Z,15.70
2018-04-12T11:26:30.362Z,15.60
2018-04-12T11:28:34.647Z,15.60
2018-04-12T11:30:38.089Z,15.60
2018-04-12T11:32:44.329Z,15.60
2018-04-12T11:34:48.475Z,15.60
2018-04-12T11:36:51.876Z,15.60
2018-04-12T11:38:55.196Z,15.60
2018-04-12T11:40:58.652Z,15.60
2018-04-12T11:43:02.164Z,15.60
2018-04-12T11:45:05.587Z,15.70
2018-04-12T11:47:09.721Z,15.70
2018-04-12T11:49:13.880Z,15.60
2018-04-12T11:51:17.221Z,15.60
2018-04-12T11:53:21.321Z,15.60
2018-04-12T11:55:25.452Z,15.60
2018-04-12T11:57:29.576Z,15.80
2018-04-12T11:59:32.951Z,15.70
2018-04-12T12:01:37.062Z,16.30
2018-04-12T12:03:40.688Z,16.30
2018-04-12T12:05:44.060Z,16.70
2018-04-12T12:07:47.428Z,17.00
2018-04-12T12:09:50.781Z,17.10
2018-04-12T12:11:54.340Z,17.30
2018-04-12T12:13:57.719Z,17.30
2018-04-12T12:16:02.399Z,17.70
2018-04-12T12:18:06.066Z,17.60
2018-04-12T12:20:10.302Z,17.70
2018-04-12T12:22:13.795Z,17.70
2018-04-12T12:24:18.015Z,17.70
2018-04-12T12:26:21.524Z,17.60
2018-04-12T12:28:24.983Z,17.50
2018-04-12T12:30:28.315Z,17.60
2018-04-12T12:32:32.492Z,17.90
2018-04-12T12:34:37.138Z,18.60
2018-04-12T12:36:40.465Z,18.50
2018-04-12T12:38:43.816Z,18.80
2018-04-12T12:40:48.094Z,18.90
2018-04-12T12:42:53.181Z,18.90
2018-04-12T12:44:56.534Z,18.90
2018-04-12T12:46:59.859Z,18.90
2018-04-12T12:49:03.203Z,18.90
2018-04-12T12:51:07.701Z,19.10
2018-04-12T12:53:13.159Z,19.40
2018-04-12T12:55:16.517Z,19.40
2018-04-12T12:57:20.650Z,19.80
2018-04-12T12:59:24.277Z,19.80
2018-04-12T13:01:27.666Z,20.00
2018-04-12T13:03:31.057Z,20.10
2018-04-12T13:05:34.647Z,19.90
2018-04-12T13:07:38.820Z,19.70
2018-04-12T13:09:42.916Z,19.60
2018-04-12T13:11:46.229Z,19.60
2018-04-12T13:13:50.355Z,19.60
2018-04-12T13:15:53.973Z,19.60
2018-04-12T13:17:58.494Z,19.60
2018-04-12T13:20:01.827Z,19.30
2018-04-12T13:22:08.763Z,19.20
2018-04-12T13:24:12.115Z,19.20
2018-04-12T13:26:16.562Z,19.10
2018-04-12T13:28:20.925Z,19.20
2018-04-12T13:30:24.504Z,19.20
2018-04-12T13:32:29.109Z,19.30
2018-04-12T13:34:32.620Z,19.40
2018-04-12T13:36:36.822Z,19.10
2018-04-12T13:38:41.804Z,19.10
2018-04-12T13:40:46.901Z,19.20
2018-04-12T13:42:50.243Z,19.40
2018-04-12T13:44:55.955Z,19.40
2018-04-12T13:47:00.076Z,19.40
2018-04-12T13:49:04.172Z,19.50
2018-04-12T13:51:07.530Z,19.40
2018-04-12T13:53:10.873Z,19.50
2018-04-12T13:55:14.235Z,19.70
2018-04-12T13:57:17.591Z,20.00
2018-04-12T13:59:20.909Z,20.10
2018-04-12T14:01:24.272Z,20.10
2018-04-12T14:03:27.590Z,19.90
2018-04-12T14:05:32.844Z,19.60
2018-04-12T14:07:36.982Z,19.50
2018-04-12T14:09:40.384Z,19.50
2018-04-12T14:11:43.824Z,19.60
2018-04-12T14:13:47.276Z,19.80
2018-04-12T14:15:50.708Z,20.00
2018-04-12T14:17:54.106Z,20.20
2018-04-12T14:19:57.434Z,19.90
2018-04-12T14:22:01.576Z,19.40
2018-04-12T14:24:04.958Z,19.40
2018-04-12T14:26:08.691Z,19.50
2018-04-12T14:28:12.440Z,19.70
2018-04-12T14:30:16.578Z,19.90
2018-04-12T14:32:21.178Z,19.90
2018-04-12T14:34:24.511Z,20.20
2018-04-12T14:36:28.652Z,20.60
2018-04-12T14:38:31.980Z,20.50
2018-04-12T14:40:36.787Z,20.30
2018-04-12T14:42:41.366Z,20.30
2018-04-12T14:44:44.726Z,20.10
2018-04-12T14:46:48.058Z,20.00
2018-04-12T14:48:51.689Z,20.20
2018-04-12T14:50:57.035Z,20.40
2018-04-12T14:53:00.843Z,20.80
2018-04-12T14:55:05.043Z,21.10
2018-04-12T14:57:08.439Z,21.30
2018-04-12T14:59:11.828Z,21.40
2018-04-12T15:01:15.243Z,21.50
2018-04-12T15:03:18.609Z,21.50
2018-04-12T15:05:23.085Z,21.60
2018-04-12T15:07:26.991Z,21.50
2018-04-12T15:09:30.305Z,21.60
2018-04-12T15:11:34.396Z,21.60
2018-04-12T15:13:38.407Z,21.60
2018-04-12T15:15:43.196Z,21.30
2018-04-12T15:17:46.622Z,21.20
2018-04-12T15:19:49.997Z,21.20
2018-04-12T15:21:53.304Z,21.20
2018-04-12T15:23:56.665Z,21.20
2018-04-12T15:25:59.976Z,21.10
2018-04-12T15:28:03.337Z,21.10
2018-04-12T15:30:06.787Z,21.00
2018-04-12T15:32:10.192Z,20.80
2018-04-12T15:34:13.676Z,20.70
2018-04-12T15:36:16.998Z,20.60
2018-04-12T15:38:21.661Z,20.70
2018-04-12T15:40:25.147Z,20.60
2018-04-12T15:42:28.708Z,20.70
2018-04-12T15:44:32.049Z,20.80
2018-04-12T15:46:35.394Z,21.00
2018-04-12T15:48:38.822Z,21.00
2018-04-12T15:50:42.959Z,21.00
2018-04-12T15:52:46.324Z,21.00
2018-04-12T15:54:49.720Z,20.80
2018-04-12T15:56:53.119Z,20.60
2018-04-12T15:58:56.472Z,20.40
2018-04-12T16:00:59.801Z,20.20
2018-04-12T16:03:03.912Z,20.00
2018-04-12T16:05:07.286Z,20.00
2018-04-12T16:07:10.729Z,19.90
2018-04-12T16:09:14.084Z,19.60
2018-04-12T16:11:17.410Z,19.60
2018-04-12T16:13:21.496Z,19.50
2018-04-12T16:15:24.869Z,19.40
2018-04-12T16:17:28.177Z,19.50
2018-04-12T16:19:31.514Z,19.50
2018-04-12T16:21:34.856Z,19.50
2018-04-12T16:23:38.184Z,19.50
2018-04-12T16:25:41.576Z,19.50
2018-04-12T16:27:45.905Z,19.50
2018-04-12T16:29:49.257Z,19.60
2018-04-12T16:31:52.583Z,19.60
2018-04-12T16:33:55.904Z,19.60
2018-04-12T16:35:59.273Z,19.50
2018-04-12T16:38:02.605Z,19.50
2018-04-12T16:40:05.909Z,19.50
2018-04-12T16:42:09.228Z,19.50
2018-04-12T16:44:12.543Z,19.40
2018-04-12T16:46:15.915Z,19.40
2018-04-12T16:48:19.267Z,19.40
2018-04-12T16:50:22.563Z,19.40
2018-04-12T16:52:25.908Z,19.30
2018-04-12T16:54:29.235Z,19.20
2018-04-12T16:56:32.819Z,19.10
2018-04-12T16:58:36.130Z,19.10
2018-04-12T17:00:39.448Z,19.00
2018-04-12T17:02:43.528Z,18.90
2018-04-12T17:04:46.826Z,18.90
2018-04-12T17:06:51.035Z,18.90
2018-04-12T17:08:54.520Z,18.90
2018-04-12T17:10:59.300Z,18.90
2018-04-12T17:13:03.936Z,18.90
2018-04-12T17:15:08.066Z,18.80
2018-04-12T17:17:12.406Z,18.80
2018-04-12T17:19:16.543Z,18.80
2018-04-12T17:21:19.869Z,18.80
2018-04-12T17:23:23.948Z,18.70
2018-04-12T17:25:27.261Z,18.70
2018-04-12T17:27:30.618Z,18.70
2018-04-12T17:29:34.774Z,18.80
2018-04-12T17:31:38.129Z,18.80
2018-04-12T17:33:41.524Z,18.70
2018-04-12T17:35:44.938Z,18.70
2018-04-12T17:37:49.396Z,18.70
2018-04-12T17:39:54.305Z,18.60
2018-04-12T17:41:57.693Z,18.60
2018-04-12T17:44:01.392Z,18.60
2018-04-12T17:46:07.662Z,18.50
2018-04-12T17:48:12.269Z,18.50
2018-04-12T17:50:16.584Z,18.40
2018-04-12T17:52:20.738Z,18.40
2018-04-12T17:54:24.445Z,18.40
2018-04-12T17:56:28.796Z,18.30
2018-04-12T17:58:33.348Z,18.30
2018-04-12T18:00:38.691Z,18.20
2018-04-12T18:02:43.201Z,18.20
2018-04-12T18:04:46.952Z,18.10
2018-04-12T18:06:50.772Z,18.10
2018-04-12T18:08:54.153Z,18.10
2018-04-12T18:10:57.543Z,18.00
2018-04-12T18:13:04.361Z,18.00
2018-04-12T18:15:07.929Z,17.90
2018-04-12T18:17:11.254Z,17.90
2018-04-12T18:19:14.609Z,17.80
2018-04-12T18:21:17.969Z,17.80
2018-04-12T18:23:21.340Z,17.70
2018-04-12T18:25:24.682Z,17.70
2018-04-12T18:27:28.264Z,17.60
2018-04-12T18:29:36.604Z,17.40
2018-04-12T18:31:40.805Z,17.40
2018-04-12T18:33:44.959Z,17.20
2018-04-12T18:35:48.446Z,17.20
2018-04-12T18:37:51.829Z,17.20
2018-04-12T18:39:55.171Z,17.10
2018-04-12T18:41:58.509Z,17.00
2018-04-12T18:44:01.831Z,16.70
2018-04-12T18:46:06.227Z,16.50
2018-04-12T18:48:09.573Z,16.50
2018-04-12T18:50:12.999Z,16.40
2018-04-12T18:52:17.116Z,16.30
2018-04-12T18:54:20.428Z,16.30
2018-04-12T18:56:24.542Z,16.30
2018-04-12T18:58:28.654Z,16.30
2018-04-12T19:00:32.753Z,16.20
2018-04-12T19:02:36.851Z,16.10
2018-04-12T19:04:40.191Z,16.00
2018-04-12T19:06:43.601Z,16.00
2018-04-12T19:08:46.927Z,15.90
2018-04-12T19:10:50.289Z,15.90
2018-04-12T19:12:53.695Z,15.80
2018-04-12T19:14:57.370Z,15.70
2018-04-12T19:17:00.726Z,15.60
2018-04-12T19:19:04.376Z,15.60
2018-04-12T19:21:07.798Z,15.60
2018-04-12T19:23:11.173Z,15.50
2018-04-12T19:25:14.505Z,15.50
2018-04-12T19:27:17.938Z,15.40
2018-04-12T19:29:21.515Z,15.40
2018-04-12T19:31:24.916Z,15.30
2018-04-12T19:33:29.480Z,15.20
2018-04-12T19:35:33.060Z,15.20
2018-04-12T19:37:36.437Z,15.20
2018-04-12T19:39:39.754Z,15.10
2018-04-12T19:41:43.361Z,15.10
2018-04-12T19:43:47.449Z,15.00
2018-04-12T19:45:51.010Z,15.00
2018-04-12T19:47:54.329Z,14.90
2018-04-12T19:49:57.730Z,14.90
2018-04-12T19:52:01.951Z,14.90
2018-04-12T19:54:06.082Z,14.70
2018-04-12T19:56:10.203Z,14.70
2018-04-12T19:58:13.507Z,14.70
2018-04-12T20:00:16.917Z,14.60
2018-04-12T20:02:20.292Z,14.60
2018-04-12T20:04:23.666Z,14.50
2018-04-12T20:06:27.725Z,14.50
2018-04-12T20:08:31.037Z,14.40
2018-04-12T20:10:34.395Z,14.30
2018-04-12T20:12:37.759Z,14.30
2018-04-12T20:14:42.685Z,14.30
2018-04-12T20:16:46.795Z,14.20
2018-04-12T20:18:50.926Z,14.10
2018-04-12T20:20:55.476Z,14.00
2018-04-12T20:23:02.008Z,14.00
2018-04-12T20:25:05.351Z,14.00
2018-04-12T20:27:10.243Z,13.90
2018-04-12T20:29:13.607Z,13.90
2018-04-12T20:31:16.970Z,13.90
2018-04-12T20:33:23.054Z,13.70
2018-04-12T20:35:28.821Z,13.70
2018-04-12T20:37:32.135Z,13.60
2018-04-12T20:39:36.280Z,13.60
2018-04-12T20:41:40.588Z,13.50
2018-04-12T20:43:44.732Z,13.50
2018-04-12T20:45:48.813Z,13.50
2018-04-12T20:47:52.147Z,13.40
2018-04-12T20:49:55.517Z,13.40
2018-04-12T20:51:58.838Z,13.30
2018-04-12T20:54:02.191Z,13.10
2018-04-12T20:56:05.496Z,12.90
2018-04-12T20:58:08.853Z,12.70
2018-04-12T21:00:12.976Z,12.70
2018-04-12T21:02:16.301Z,12.70
2018-04-12T21:04:19.620Z,12.70
2018-04-12T21:06:22.955Z,12.80
2018-04-12T21:08:26.280Z,12.80
2018-04-12T21:10:29.646Z,12.80
2018-04-12T21:12:32.962Z,12.80
2018-04-12T21:14:36.283Z,12.90
2018-04-12T21:16:39.613Z,12.80
2018-04-12T21:18:42.935Z,12.70
2018-04-12T21:20:46.290Z,12.60
2018-04-12T21:22:49.904Z,12.60
2018-04-12T21:24:54.054Z,12.50
2018-04-12T21:26:57.483Z,12.50
2018-04-12T21:29:00.821Z,12.50
2018-04-12T21:31:04.213Z,12.50
2018-04-12T21:33:07.523Z,12.50
2018-04-12T21:35:10.896Z,12.50
2018-04-12T21:37:14.209Z,12.40
2018-04-12T21:39:17.523Z,12.40
2018-04-12T21:41:21.669Z,12.20
2018-04-12T21:43:24.992Z,12.20
2018-04-12T21:45:28.309Z,12.20
2018-04-12T21:47:32.424Z,12.20
2018-04-12T21:49:35.753Z,12.20
2018-04-12T21:51:39.087Z,12.20
2018-04-12T21:53:42.409Z,12.20
2018-04-12T21:55:46.495Z,12.10
2018-04-12T21:57:49.848Z,12.10
2018-04-12T21:59:53.186Z,12.10
2018-04-12T22:01:56.567Z,12.10
2018-04-12T22:03:59.917Z,12.10
2018-04-12T22:06:03.258Z,12.00
2018-04-12T22:08:07.364Z,11.90
2018-04-12T22:10:10.705Z,11.90
2018-04-12T22:12:14.980Z,11.90
2018-04-12T22:14:18.364Z,11.80
2018-04-12T22:16:22.754Z,11.70
2018-04-12T22:18:26.087Z,11.70
2018-04-12T22:20:29.439Z,11.70
2018-04-12T22:22:32.831Z,11.70
2018-04-12T22:24:37.064Z,11.60
2018-04-12T22:26:42.750Z,11.50
2018-04-12T22:28:46.102Z,11.50
2018-04-12T22:30:49.432Z,11.40
2018-04-12T22:32:52.771Z,11.40
2018-04-12T22:34:56.102Z,11.40
2018-04-12T22:36:59.453Z,11.40
2018-04-12T22:39:02.793Z,11.30
2018-04-12T22:41:06.138Z,11.30
2018-04-12T22:43:09.534Z,11.20
2018-04-12T22:45:12.850Z,11.20
2018-04-12T22:47:16.165Z,11.10
2018-04-12T22:49:19.517Z,11.10
2018-04-12T22:51:23.592Z,11.00
2018-04-12T22:53:26.969Z,11.00
2018-04-12T22:55:30.278Z,11.00
2018-04-12T22:57:33.594Z,11.00
2018-04-12T22:59:37.717Z,11.00
2018-04-12T23:01:41.796Z,11.00
2018-04-12T23:03:45.146Z,10.90
2018-04-12T23:05:48.467Z,10.80
2018-04-12T23:10:01.532Z,10.70
2018-04-12T23:12:04.864Z,10.80
2018-04-12T23:14:08.233Z,10.80
2018-04-12T23:16:11.560Z,10.70
2018-04-12T23:18:14.906Z,10.70
2018-04-12T23:20:18.320Z,10.70
2018-04-12T23:22:21.659Z,10.70
2018-04-12T23:24:25.054Z,10.70
2018-04-12T23:26:29.169Z,10.70
2018-04-12T23:28:32.498Z,10.70
2018-04-12T23:30:35.846Z,10.70
2018-04-12T23:32:39.951Z,10.70
2018-04-12T23:34:43.312Z,10.70
2018-04-12T23:36:46.664Z,10.70
2018-04-12T23:38:50.745Z,10.60
2018-04-12T23:40:54.116Z,10.60
2018-04-12T23:42:57.448Z,10.60
2018-04-12T23:45:01.576Z,10.50
2018-04-12T23:47:04.966Z,10.50
2018-04-12T23:49:08.331Z,10.40
2018-04-12T23:51:11.689Z,10.40
2018-04-12T23:53:15.017Z,10.40
2018-04-12T23:55:18.359Z,10.40
2018-04-12T23:57:21.683Z,10.40
2018-04-12T23:59:24.994Z,10.30
